Flight Track Log - Related Links

Times and Time Zones

All times are in EDT time to prevent confusion due to time zone crossing. See the PDT4226 flight status page for this flight to view local times or setup timezone preferences in your user account.

Time Position Orientation Groundspeed Altitude Reporting Facility
EDT Latitude Longitude Course Direction KTS MPH feet Rate Location/Type
Wed 12:36:42 PM 39.8833 -75.2000 311° West 123 142 600  Level Philadelphia TRACON
Wed 12:38:18 PM 39.9333 -75.1667 27° Northeast 148 170 2,900 1,407 Climbing Philadelphia TRACON
Wed 12:39:00 PM 40.0700 -75.3014 323° Northwest  Level Estimated
Wed 12:39:07 PM 39.9667 -75.1667 360° North 146 168 4,000  Level Philadelphia TRACON
Wed 12:40:00 PM 40.1359 -75.3216 311° West  Level Estimated
Wed 12:40:12 PM 40.0167 -75.1833 346° North 156 180 5,600  Level Philadelphia TRACON
Wed 12:41:00 PM 40.2018 -75.3419 311° West  Level Estimated
Wed 12:41:13 PM 40.0500 -75.2167 323° Northwest 147 169 7,000  Level Philadelphia TRACON
Wed 12:42:19 PM 40.0667 -75.2667 294° West 148 170 8,300 952 Climbing Philadelphia TRACON
Wed 12:43:19 PM 40.1000 -75.3167 311° West 167 192 9,000 276 Climbing Philadelphia TRACON
Wed 12:44:51 PM 40.1408 -75.4139 299° West 229 264 9,000  Level New York Center
Wed 12:45:51 PM 40.1739 -75.4758 305° West 229 264 9,000  Level New York Center
Wed 12:46:51 PM 40.2128 -75.5439 307° West 229 264 9,000 2,500 Level New York Center
Wed 12:47:51 PM 40.2561 -75.6094 311° West 229 264 14,000 950 Climbing New York Center
Wed 12:48:51 PM 40.2914 -75.6636 311° West 210 242 10,900 -1,100 Descending New York Center
Wed 12:49:51 PM 40.3225 -75.7147 309° West 195 224 11,800 950 Climbing New York Center
Wed 12:50:51 PM 40.3719 -75.7319 345° North 182 209 12,800 950 Climbing New York Center
Wed 12:51:51 PM 40.4167 -75.7597 335° Northwest 182 209 13,700 600 Climbing New York Center
Wed 12:52:51 PM 40.4692 -75.7961 332° Northwest 182 209 14,000 150 Climbing New York Center
Wed 12:53:51 PM 40.5283 -75.8250 340° North 207 238 14,000  Level New York Center
Wed 12:54:51 PM 40.5894 -75.8597 337° Northwest 232 267 14,000  Level New York Center
Wed 12:55:51 PM 40.6467 -75.8858 341° North 244 281 14,000  Level New York Center
Wed 12:56:51 PM 40.7119 -75.9153 341° North 244 281 14,000  Level New York Center
Wed 12:57:51 PM 40.7789 -75.9614 332° Northwest 244 281 14,000  Level New York Center
Wed 12:58:51 PM 40.8397 -75.9964 336° Northwest 244 281 14,000  Level New York Center
Wed 12:59:51 PM 40.9031 -76.0286 339° North 244 281 14,000  Level New York Center
Wed 01:00:51 PM 40.9639 -76.0661 335° Northwest 244 281 14,000  Level New York Center
Wed 01:01:51 PM 41.0292 -76.0961 341° North 239 275 14,000  Level New York Center
Wed 01:02:51 PM 41.0881 -76.1311 336° Northwest 239 275 14,000  Level New York Center
Wed 01:03:51 PM 41.1450 -76.1575 341° North 239 275 14,000  Level New York Center
Wed 01:04:51 PM 41.2061 -76.1872 340° North 239 275 14,000 50 Level New York Center
Wed 01:05:51 PM 41.2764 -76.2039 350° North 239 275 14,100 50 Climbing New York Center
Wed 01:06:51 PM 41.3456 -76.1956 North 239 275 14,100  Level New York Center
Wed 01:07:51 PM 41.4142 -76.1931 North 239 275 14,100  Level New York Center
Wed 01:08:51 PM 41.4747 -76.1894 North 239 275 14,100  Level New York Center
Wed 01:09:51 PM 41.5439 -76.1839 North 239 275 14,100 -300 Level New York Center
Wed 01:10:51 PM 41.6211 -76.1764 North 244 281 13,500 -850 Descending New York Center
Wed 01:11:51 PM 41.6969 -76.1603 North 264 304 12,400 -1,200 Descending New York Center
Wed 01:12:51 PM 41.7736 -76.1247 19° North 282 325 11,100 -1,300 Descending New York Center
Wed 01:13:51 PM 41.8453 -76.1056 11° North 287 330 9,800 -1,600 Descending New York Center
Wed 01:14:51 PM 41.9197 -76.0697 20° North 287 330 7,900 -1,950 Descending New York Center
Wed 01:15:51 PM 42.0006 -76.0314 19° North 282 325 5,900 -1,750 Descending New York Center
Wed 01:16:51 PM 42.0683 -76.0033 17° North 282 325 4,400 -1,350 Descending New York Center
Wed 01:17:51 PM 42.1322 -75.9692 22° Northeast 265 305 3,200 -900 Descending New York Center
Wed 01:18:51 PM 42.1806 -75.9619 North 218 251 2,600 -600 Descending New York Center
Wed 01:19:51 PM 42.2114 -75.9672 353° North 138 159 2,000 -600 Descending New York Center

Login

Don't have an account? Register now (free) for customized features, flight alerts, and more!